sensor_id;sensor_type;location;lat;lon;timestamp;P1;durP1;ratioP1;P2;durP2;ratioP2
36185;SDS011;22228;53.222;7.446;2024-01-30T00:00:31;25.63;;;21.93;;
36185;SDS011;22228;53.222;7.446;2024-01-30T00:03:52;26.53;;;21.43;;
36185;SDS011;22228;53.222;7.446;2024-01-30T00:07:12;23.73;;;21.23;;
36185;SDS011;22228;53.222;7.446;2024-01-30T00:10:34;24.83;;;22.23;;
36185;SDS011;22228;53.222;7.446;2024-01-30T00:13:55;25.13;;;22.10;;
36185;SDS011;22228;53.222;7.446;2024-01-30T00:17:15;26.10;;;22.60;;
36185;SDS011;22228;53.222;7.446;2024-01-30T00:20:36;27.00;;;22.07;;
36185;SDS011;22228;53.222;7.446;2024-01-30T00:23:56;25.07;;;22.30;;
36185;SDS011;22228;53.222;7.446;2024-01-30T00:27:18;25.70;;;22.57;;
36185;SDS011;22228;53.222;7.446;2024-01-30T00:30:38;25.57;;;22.63;;
36185;SDS011;22228;53.222;7.446;2024-01-30T00:33:59;26.60;;;23.70;;
36185;SDS011;22228;53.222;7.446;2024-01-30T00:37:19;28.17;;;23.47;;
36185;SDS011;22228;53.222;7.446;2024-01-30T00:40:39;26.33;;;23.33;;
36185;SDS011;22228;53.222;7.446;2024-01-30T00:44:01;27.57;;;23.33;;
36185;SDS011;22228;53.222;7.446;2024-01-30T00:47:22;27.97;;;23.80;;
36185;SDS011;22228;53.222;7.446;2024-01-30T00:50:43;29.17;;;23.87;;
36185;SDS011;22228;53.222;7.446;2024-01-30T00:54:03;26.60;;;23.80;;
36185;SDS011;22228;53.222;7.446;2024-01-30T00:57:24;27.33;;;23.93;;
36185;SDS011;22228;53.222;7.446;2024-01-30T01:00:47;30.63;;;24.73;;
36185;SDS011;22228;53.222;7.446;2024-01-30T01:04:07;26.57;;;23.07;;
36185;SDS011;22228;53.222;7.446;2024-01-30T01:07:27;26.20;;;22.10;;
36185;SDS011;22228;53.222;7.446;2024-01-30T01:10:48;26.77;;;23.80;;
36185;SDS011;22228;53.222;7.446;2024-01-30T01:14:08;27.93;;;23.93;;
36185;SDS011;22228;53.222;7.446;2024-01-30T04:01:48;30.13;;;24.53;;
36185;SDS011;22228;53.222;7.446;2024-01-30T04:05:08;31.33;;;25.17;;
36185;SDS011;22228;53.222;7.446;2024-01-30T04:08:29;29.47;;;25.47;;
36185;SDS011;22228;53.222;7.446;2024-01-30T04:11:49;34.63;;;25.53;;
36185;SDS011;22228;53.222;7.446;2024-01-30T04:15:10;34.03;;;26.47;;
36185;SDS011;22228;53.222;7.446;2024-01-30T04:18:33;31.23;;;25.57;;
36185;SDS011;22228;53.222;7.446;2024-01-30T04:21:54;33.17;;;26.47;;
36185;SDS011;22228;53.222;7.446;2024-01-30T04:25:14;32.50;;;26.70;;
36185;SDS011;22228;53.222;7.446;2024-01-30T04:28:34;33.07;;;26.60;;
36185;SDS011;22228;53.222;7.446;2024-01-30T04:31:55;34.23;;;26.93;;
36185;SDS011;22228;53.222;7.446;2024-01-30T04:35:17;35.93;;;28.50;;
36185;SDS011;22228;53.222;7.446;2024-01-30T04:38:39;37.33;;;28.80;;
36185;SDS011;22228;53.222;7.446;2024-01-30T04:41:59;33.23;;;28.00;;
36185;SDS011;22228;53.222;7.446;2024-01-30T04:45:20;37.03;;;29.87;;
36185;SDS011;22228;53.222;7.446;2024-01-30T04:48:40;38.87;;;29.73;;
36185;SDS011;22228;53.222;7.446;2024-01-30T04:52:02;39.87;;;29.67;;
36185;SDS011;22228;53.222;7.446;2024-01-30T04:55:23;34.83;;;28.67;;
36185;SDS011;22228;53.222;7.446;2024-01-30T04:58:44;37.50;;;29.03;;
36185;SDS011;22228;53.222;7.446;2024-01-30T05:02:04;36.23;;;28.97;;
36185;SDS011;22228;53.222;7.446;2024-01-30T05:05:25;32.70;;;27.07;;
36185;SDS011;22228;53.222;7.446;2024-01-30T05:08:47;37.93;;;28.03;;
36185;SDS011;22228;53.222;7.446;2024-01-30T05:12:08;34.03;;;27.20;;
36185;SDS011;22228;53.222;7.446;2024-01-30T05:15:28;37.93;;;28.20;;
36185;SDS011;22228;53.222;7.446;2024-01-30T05:18:49;36.30;;;28.00;;
36185;SDS011;22228;53.222;7.446;2024-01-30T05:22:09;36.00;;;28.43;;
36185;SDS011;22228;53.222;7.446;2024-01-30T05:25:31;33.90;;;27.23;;
36185;SDS011;22228;53.222;7.446;2024-01-30T05:28:52;35.63;;;27.80;;
36185;SDS011;22228;53.222;7.446;2024-01-30T05:32:12;36.50;;;27.67;;
36185;SDS011;22228;53.222;7.446;2024-01-30T05:35:32;37.13;;;28.90;;
36185;SDS011;22228;53.222;7.446;2024-01-30T05:38:53;36.53;;;27.67;;
36185;SDS011;22228;53.222;7.446;2024-01-30T05:42:15;37.50;;;29.40;;
36185;SDS011;22228;53.222;7.446;2024-01-30T05:45:35;37.03;;;29.30;;
36185;SDS011;22228;53.222;7.446;2024-01-30T05:48:56;34.77;;;28.00;;
36185;SDS011;22228;53.222;7.446;2024-01-30T05:52:16;40.33;;;29.83;;
36185;SDS011;22228;53.222;7.446;2024-01-30T05:55:37;36.77;;;29.00;;
36185;SDS011;22228;53.222;7.446;2024-01-30T05:58:59;35.37;;;28.93;;
36185;SDS011;22228;53.222;7.446;2024-01-30T06:02:19;37.77;;;30.43;;
36185;SDS011;22228;53.222;7.446;2024-01-30T06:05:40;37.60;;;30.70;;
36185;SDS011;22228;53.222;7.446;2024-01-30T06:09:00;37.97;;;30.03;;
36185;SDS011;22228;53.222;7.446;2024-01-30T06:12:21;40.03;;;30.57;;
36185;SDS011;22228;53.222;7.446;2024-01-30T06:15:43;39.03;;;30.27;;
36185;SDS011;22228;53.222;7.446;2024-01-30T06:19:03;35.70;;;29.43;;
36185;SDS011;22228;53.222;7.446;2024-01-30T06:22:24;40.77;;;30.67;;
36185;SDS011;22228;53.222;7.446;2024-01-30T06:25:44;36.73;;;29.33;;
36185;SDS011;22228;53.222;7.446;2024-01-30T06:29:05;38.57;;;29.67;;
36185;SDS011;22228;53.222;7.446;2024-01-30T06:32:27;37.33;;;30.30;;
36185;SDS011;22228;53.222;7.446;2024-01-30T06:35:52;37.97;;;29.83;;
36185;SDS011;22228;53.222;7.446;2024-01-30T06:39:13;33.67;;;28.87;;
36185;SDS011;22228;53.222;7.446;2024-01-30T06:42:33;38.93;;;29.87;;
36185;SDS011;22228;53.222;7.446;2024-01-30T06:45:54;35.53;;;28.30;;
36185;SDS011;22228;53.222;7.446;2024-01-30T06:49:16;33.97;;;27.73;;
36185;SDS011;22228;53.222;7.446;2024-01-30T06:52:36;36.17;;;28.07;;
36185;SDS011;22228;53.222;7.446;2024-01-30T06:55:56;34.63;;;28.03;;
36185;SDS011;22228;53.222;7.446;2024-01-30T06:59:17;30.97;;;27.43;;
36185;SDS011;22228;53.222;7.446;2024-01-30T07:02:38;33.20;;;26.00;;
36185;SDS011;22228;53.222;7.446;2024-01-30T07:05:59;30.87;;;25.53;;
36185;SDS011;22228;53.222;7.446;2024-01-30T07:09:20;28.33;;;25.13;;
36185;SDS011;22228;53.222;7.446;2024-01-30T07:12:41;29.37;;;23.30;;
36185;SDS011;22228;53.222;7.446;2024-01-30T07:16:02;26.70;;;23.43;;
36185;SDS011;22228;53.222;7.446;2024-01-30T07:19:23;27.83;;;23.37;;
36185;SDS011;22228;53.222;7.446;2024-01-30T07:22:45;28.67;;;24.10;;
36185;SDS011;22228;53.222;7.446;2024-01-30T07:26:06;26.90;;;21.83;;
36185;SDS011;22228;53.222;7.446;2024-01-30T07:29:27;27.30;;;22.73;;
36185;SDS011;22228;53.222;7.446;2024-01-30T07:32:47;25.60;;;21.60;;
36185;SDS011;22228;53.222;7.446;2024-01-30T07:36:07;24.20;;;21.37;;
36185;SDS011;22228;53.222;7.446;2024-01-30T07:39:30;28.40;;;20.50;;
36185;SDS011;22228;53.222;7.446;2024-01-30T07:42:52;25.40;;;21.77;;
36185;SDS011;22228;53.222;7.446;2024-01-30T07:46:13;25.30;;;21.13;;
36185;SDS011;22228;53.222;7.446;2024-01-30T07:49:33;21.87;;;18.87;;
36185;SDS011;22228;53.222;7.446;2024-01-30T07:52:55;22.50;;;20.00;;
36185;SDS011;22228;53.222;7.446;2024-01-30T07:56:17;20.30;;;18.13;;
36185;SDS011;22228;53.222;7.446;2024-01-30T07:59:37;22.13;;;18.23;;
36185;SDS011;22228;53.222;7.446;2024-01-30T08:02:58;21.23;;;19.03;;
36185;SDS011;22228;53.222;7.446;2024-01-30T08:06:18;20.57;;;18.47;;
36185;SDS011;22228;53.222;7.446;2024-01-30T08:09:38;19.57;;;17.47;;
36185;SDS011;22228;53.222;7.446;2024-01-30T08:13:00;20.77;;;18.63;;
36185;SDS011;22228;53.222;7.446;2024-01-30T08:16:21;20.00;;;17.90;;
36185;SDS011;22228;53.222;7.446;2024-01-30T08:19:42;20.13;;;17.93;;
36185;SDS011;22228;53.222;7.446;2024-01-30T08:23:02;20.83;;;17.87;;
36185;SDS011;22228;53.222;7.446;2024-01-30T08:26:23;20.23;;;16.70;;
36185;SDS011;22228;53.222;7.446;2024-01-30T08:29:44;22.73;;;16.77;;
36185;SDS011;22228;53.222;7.446;2024-01-30T08:33:05;19.43;;;16.10;;
36185;SDS011;22228;53.222;7.446;2024-01-30T08:36:25;17.57;;;15.77;;
36185;SDS011;22228;53.222;7.446;2024-01-30T08:39:46;17.37;;;15.57;;
36185;SDS011;22228;53.222;7.446;2024-01-30T08:43:06;19.43;;;17.07;;
36185;SDS011;22228;53.222;7.446;2024-01-30T08:46:30;18.23;;;16.23;;
36185;SDS011;22228;53.222;7.446;2024-01-30T08:49:50;19.53;;;16.17;;
36185;SDS011;22228;53.222;7.446;2024-01-30T08:53:10;19.83;;;17.13;;
36185;SDS011;22228;53.222;7.446;2024-01-30T08:56:31;17.47;;;15.47;;
36185;SDS011;22228;53.222;7.446;2024-01-30T08:59:51;18.03;;;15.13;;
36185;SDS011;22228;53.222;7.446;2024-01-30T09:03:13;16.60;;;14.43;;
36185;SDS011;22228;53.222;7.446;2024-01-30T09:06:34;16.90;;;15.03;;
36185;SDS011;22228;53.222;7.446;2024-01-30T09:09:54;18.13;;;15.67;;
36185;SDS011;22228;53.222;7.446;2024-01-30T09:13:15;16.83;;;14.67;;
36185;SDS011;22228;53.222;7.446;2024-01-30T09:16:35;17.33;;;13.73;;
36185;SDS011;22228;53.222;7.446;2024-01-30T09:19:57;16.57;;;14.80;;
36185;SDS011;22228;53.222;7.446;2024-01-30T09:23:18;14.93;;;13.53;;
36185;SDS011;22228;53.222;7.446;2024-01-30T09:26:38;14.80;;;13.40;;
36185;SDS011;22228;53.222;7.446;2024-01-30T09:29:59;17.97;;;14.50;;
36185;SDS011;22228;53.222;7.446;2024-01-30T09:33:19;15.03;;;13.47;;
36185;SDS011;22228;53.222;7.446;2024-01-30T09:36:41;15.00;;;13.47;;
36185;SDS011;22228;53.222;7.446;2024-01-30T09:40:02;15.10;;;13.53;;
36185;SDS011;22228;53.222;7.446;2024-01-30T09:43:23;17.73;;;13.93;;
36185;SDS011;22228;53.222;7.446;2024-01-30T09:46:44;14.80;;;13.07;;
36185;SDS011;22228;53.222;7.446;2024-01-30T09:50:08;15.17;;;13.17;;
36185;SDS011;22228;53.222;7.446;2024-01-30T09:53:30;15.17;;;13.03;;
36185;SDS011;22228;53.222;7.446;2024-01-30T09:56:51;14.53;;;12.70;;
36185;SDS011;22228;53.222;7.446;2024-01-30T10:00:12;14.00;;;12.50;;
36185;SDS011;22228;53.222;7.446;2024-01-30T10:03:33;16.13;;;12.67;;
36185;SDS011;22228;53.222;7.446;2024-01-30T10:06:53;14.43;;;12.93;;
36185;SDS011;22228;53.222;7.446;2024-01-30T10:10:15;14.67;;;11.60;;
36185;SDS011;22228;53.222;7.446;2024-01-30T10:13:36;14.13;;;12.17;;
36185;SDS011;22228;53.222;7.446;2024-01-30T10:16:58;14.90;;;13.10;;
36185;SDS011;22228;53.222;7.446;2024-01-30T10:20:19;15.10;;;12.87;;
36185;SDS011;22228;53.222;7.446;2024-01-30T10:23:41;13.23;;;12.03;;
36185;SDS011;22228;53.222;7.446;2024-01-30T10:27:06;14.23;;;12.73;;
36185;SDS011;22228;53.222;7.446;2024-01-30T10:30:27;13.67;;;12.17;;
36185;SDS011;22228;53.222;7.446;2024-01-30T10:33:48;14.17;;;11.67;;
36185;SDS011;22228;53.222;7.446;2024-01-30T10:37:10;12.73;;;11.17;;
36185;SDS011;22228;53.222;7.446;2024-01-30T10:40:31;13.40;;;11.20;;
36185;SDS011;22228;53.222;7.446;2024-01-30T10:43:57;14.13;;;11.20;;
36185;SDS011;22228;53.222;7.446;2024-01-30T10:47:30;16.70;;;12.37;;
36185;SDS011;22228;53.222;7.446;2024-01-30T10:50:50;12.43;;;11.13;;
36185;SDS011;22228;53.222;7.446;2024-01-30T10:54:14;12.57;;;11.30;;
36185;SDS011;22228;53.222;7.446;2024-01-30T10:57:36;12.17;;;10.80;;
36185;SDS011;22228;53.222;7.446;2024-01-30T11:00:59;11.77;;;10.43;;
36185;SDS011;22228;53.222;7.446;2024-01-30T11:04:20;13.17;;;10.90;;
36185;SDS011;22228;53.222;7.446;2024-01-30T11:07:40;14.50;;;10.73;;
36185;SDS011;22228;53.222;7.446;2024-01-30T11:11:01;11.87;;;10.30;;
36185;SDS011;22228;53.222;7.446;2024-01-30T11:14:24;13.03;;;10.90;;
36185;SDS011;22228;53.222;7.446;2024-01-30T11:17:50;11.90;;;10.13;;
36185;SDS011;22228;53.222;7.446;2024-01-30T11:21:11;12.70;;;10.70;;
36185;SDS011;22228;53.222;7.446;2024-01-30T11:24:38;11.60;;;10.13;;
36185;SDS011;22228;53.222;7.446;2024-01-30T11:28:00;12.00;;;10.20;;
36185;SDS011;22228;53.222;7.446;2024-01-30T11:31:21;13.57;;;10.80;;
36185;SDS011;22228;53.222;7.446;2024-01-30T11:34:43;11.40;;;10.20;;
36185;SDS011;22228;53.222;7.446;2024-01-30T11:38:04;13.03;;;11.27;;
36185;SDS011;22228;53.222;7.446;2024-01-30T11:41:25;12.00;;;10.80;;
36185;SDS011;22228;53.222;7.446;2024-01-30T11:44:47;17.40;;;11.17;;
36185;SDS011;22228;53.222;7.446;2024-01-30T11:48:11;16.00;;;11.33;;
36185;SDS011;22228;53.222;7.446;2024-01-30T11:51:33;13.53;;;11.30;;
36185;SDS011;22228;53.222;7.446;2024-01-30T11:54:54;12.70;;;11.20;;
36185;SDS011;22228;53.222;7.446;2024-01-30T11:58:15;12.97;;;11.17;;
36185;SDS011;22228;53.222;7.446;2024-01-30T12:01:35;13.93;;;11.67;;
36185;SDS011;22228;53.222;7.446;2024-01-30T12:04:56;13.83;;;12.20;;
36185;SDS011;22228;53.222;7.446;2024-01-30T12:08:18;13.33;;;11.07;;
36185;SDS011;22228;53.222;7.446;2024-01-30T12:11:44;14.30;;;11.30;;
36185;SDS011;22228;53.222;7.446;2024-01-30T12:15:06;12.70;;;11.13;;
36185;SDS011;22228;53.222;7.446;2024-01-30T12:18:28;14.20;;;10.50;;
36185;SDS011;22228;53.222;7.446;2024-01-30T12:21:53;14.23;;;11.50;;
36185;SDS011;22228;53.222;7.446;2024-01-30T12:25:17;16.80;;;12.20;;
36185;SDS011;22228;53.222;7.446;2024-01-30T12:28:47;14.43;;;12.20;;
36185;SDS011;22228;53.222;7.446;2024-01-30T12:32:08;12.17;;;10.80;;
36185;SDS011;22228;53.222;7.446;2024-01-30T12:35:29;14.00;;;11.37;;
36185;SDS011;22228;53.222;7.446;2024-01-30T12:38:49;14.83;;;11.70;;
36185;SDS011;22228;53.222;7.446;2024-01-30T12:42:12;17.90;;;12.50;;
36185;SDS011;22228;53.222;7.446;2024-01-30T12:45:33;16.53;;;12.47;;
36185;SDS011;22228;53.222;7.446;2024-01-30T12:48:53;18.87;;;11.97;;
36185;SDS011;22228;53.222;7.446;2024-01-30T12:52:16;15.17;;;12.60;;
36185;SDS011;22228;53.222;7.446;2024-01-30T12:55:36;13.93;;;11.57;;
36185;SDS011;22228;53.222;7.446;2024-01-30T12:58:59;15.03;;;12.07;;
36185;SDS011;22228;53.222;7.446;2024-01-30T13:02:20;17.00;;;12.70;;
36185;SDS011;22228;53.222;7.446;2024-01-30T13:05:42;19.00;;;12.17;;
36185;SDS011;22228;53.222;7.446;2024-01-30T13:09:03;15.17;;;11.70;;
36185;SDS011;22228;53.222;7.446;2024-01-30T13:12:25;16.00;;;11.83;;
36185;SDS011;22228;53.222;7.446;2024-01-30T13:15:48;18.33;;;13.17;;
36185;SDS011;22228;53.222;7.446;2024-01-30T13:19:09;16.27;;;12.80;;
36185;SDS011;22228;53.222;7.446;2024-01-30T13:22:31;14.17;;;12.13;;
36185;SDS011;22228;53.222;7.446;2024-01-30T13:25:51;13.90;;;11.40;;
36185;SDS011;22228;53.222;7.446;2024-01-30T13:29:12;13.40;;;12.00;;
36185;SDS011;22228;53.222;7.446;2024-01-30T13:32:34;16.93;;;11.20;;
36185;SDS011;22228;53.222;7.446;2024-01-30T13:35:55;16.47;;;11.83;;
36185;SDS011;22228;53.222;7.446;2024-01-30T13:39:19;18.47;;;11.27;;
36185;SDS011;22228;53.222;7.446;2024-01-30T13:42:39;14.13;;;9.97;;
36185;SDS011;22228;53.222;7.446;2024-01-30T13:46:00;17.83;;;10.00;;
36185;SDS011;22228;53.222;7.446;2024-01-30T13:49:23;15.97;;;9.67;;
36185;SDS011;22228;53.222;7.446;2024-01-30T13:52:44;13.07;;;8.47;;
36185;SDS011;22228;53.222;7.446;2024-01-30T13:56:04;11.47;;;6.33;;
36185;SDS011;22228;53.222;7.446;2024-01-30T13:59:25;6.43;;;4.10;;
36185;SDS011;22228;53.222;7.446;2024-01-30T14:02:46;5.30;;;3.43;;
36185;SDS011;22228;53.222;7.446;2024-01-30T14:06:08;3.43;;;2.50;;
36185;SDS011;22228;53.222;7.446;2024-01-30T14:09:29;2.83;;;2.20;;
36185;SDS011;22228;53.222;7.446;2024-01-30T14:12:51;4.47;;;2.23;;
36185;SDS011;22228;53.222;7.446;2024-01-30T14:16:11;2.27;;;2.00;;
36185;SDS011;22228;53.222;7.446;2024-01-30T14:19:32;3.10;;;2.13;;
36185;SDS011;22228;53.222;7.446;2024-01-30T14:22:54;1.83;;;1.73;;
36185;SDS011;22228;53.222;7.446;2024-01-30T14:26:14;3.57;;;1.77;;
36185;SDS011;22228;53.222;7.446;2024-01-30T14:29:35;3.77;;;1.90;;
36185;SDS011;22228;53.222;7.446;2024-01-30T14:32:55;2.37;;;1.90;;
36185;SDS011;22228;53.222;7.446;2024-01-30T14:36:15;4.90;;;2.10;;
36185;SDS011;22228;53.222;7.446;2024-01-30T14:39:39;3.40;;;2.03;;
36185;SDS011;22228;53.222;7.446;2024-01-30T14:43:00;2.50;;;1.43;;
36185;SDS011;22228;53.222;7.446;2024-01-30T14:46:20;1.93;;;1.13;;
36185;SDS011;22228;53.222;7.446;2024-01-30T14:49:42;3.17;;;1.17;;
36185;SDS011;22228;53.222;7.446;2024-01-30T14:53:03;1.40;;;1.30;;
36185;SDS011;22228;53.222;7.446;2024-01-30T14:56:25;1.70;;;1.00;;
36185;SDS011;22228;53.222;7.446;2024-01-30T14:59:47;3.20;;;1.10;;
36185;SDS011;22228;53.222;7.446;2024-01-30T15:03:08;2.17;;;1.77;;
36185;SDS011;22228;53.222;7.446;2024-01-30T15:06:29;1.00;;;1.00;;
36185;SDS011;22228;53.222;7.446;2024-01-30T15:09:50;3.90;;;1.10;;
36185;SDS011;22228;53.222;7.446;2024-01-30T15:13:12;2.60;;;1.20;;
36185;SDS011;22228;53.222;7.446;2024-01-30T15:16:32;3.07;;;2.20;;
36185;SDS011;22228;53.222;7.446;2024-01-30T15:19:53;1.50;;;1.00;;
36185;SDS011;22228;53.222;7.446;2024-01-30T15:23:13;1.87;;;1.10;;
36185;SDS011;22228;53.222;7.446;2024-01-30T15:26:35;1.70;;;1.03;;
36185;SDS011;22228;53.222;7.446;2024-01-30T15:29:57;1.33;;;1.03;;
36185;SDS011;22228;53.222;7.446;2024-01-30T15:33:17;2.10;;;1.07;;
36185;SDS011;22228;53.222;7.446;2024-01-30T15:36:38;2.03;;;1.07;;
36185;SDS011;22228;53.222;7.446;2024-01-30T15:39:59;1.73;;;1.20;;
36185;SDS011;22228;53.222;7.446;2024-01-30T15:43:19;1.10;;;1.10;;
36185;SDS011;22228;53.222;7.446;2024-01-30T15:46:44;2.47;;;1.50;;
36185;SDS011;22228;53.222;7.446;2024-01-30T15:50:04;4.50;;;1.60;;
36185;SDS011;22228;53.222;7.446;2024-01-30T15:53:25;2.50;;;1.80;;
36185;SDS011;22228;53.222;7.446;2024-01-30T15:56:46;1.83;;;1.50;;
36185;SDS011;22228;53.222;7.446;2024-01-30T16:00:07;1.63;;;1.53;;
36185;SDS011;22228;53.222;7.446;2024-01-30T16:03:31;3.47;;;1.40;;
36185;SDS011;22228;53.222;7.446;2024-01-30T16:06:53;2.07;;;1.33;;
36185;SDS011;22228;53.222;7.446;2024-01-30T16:10:14;1.70;;;1.60;;
36185;SDS011;22228;53.222;7.446;2024-01-30T16:13:35;1.90;;;1.70;;
36185;SDS011;22228;53.222;7.446;2024-01-30T16:16:56;3.27;;;1.70;;
36185;SDS011;22228;53.222;7.446;2024-01-30T16:20:18;4.33;;;2.00;;
36185;SDS011;22228;53.222;7.446;2024-01-30T16:23:38;2.70;;;1.80;;
36185;SDS011;22228;53.222;7.446;2024-01-30T16:26:59;3.37;;;1.60;;
36185;SDS011;22228;53.222;7.446;2024-01-30T16:30:20;1.80;;;1.70;;
36185;SDS011;22228;53.222;7.446;2024-01-30T16:33:40;1.97;;;1.87;;
36185;SDS011;22228;53.222;7.446;2024-01-30T16:37:02;2.43;;;1.80;;
36185;SDS011;22228;53.222;7.446;2024-01-30T16:40:23;2.23;;;1.97;;
36185;SDS011;22228;53.222;7.446;2024-01-30T16:43:43;2.50;;;2.30;;
36185;SDS011;22228;53.222;7.446;2024-01-30T16:47:04;2.70;;;2.50;;
36185;SDS011;22228;53.222;7.446;2024-01-30T16:50:25;3.07;;;2.87;;
36185;SDS011;22228;53.222;7.446;2024-01-30T16:53:47;3.60;;;3.30;;
36185;SDS011;22228;53.222;7.446;2024-01-30T16:57:07;4.00;;;3.70;;
36185;SDS011;22228;53.222;7.446;2024-01-30T17:00:28;4.40;;;4.00;;
36185;SDS011;22228;53.222;7.446;2024-01-30T17:03:48;4.43;;;4.13;;
36185;SDS011;22228;53.222;7.446;2024-01-30T17:07:09;4.97;;;4.63;;
36185;SDS011;22228;53.222;7.446;2024-01-30T17:10:46;5.37;;;4.90;;
36185;SDS011;22228;53.222;7.446;2024-01-30T17:14:07;4.90;;;4.50;;
36185;SDS011;22228;53.222;7.446;2024-01-30T17:17:30;6.07;;;5.43;;
36185;SDS011;22228;53.222;7.446;2024-01-30T17:20:51;8.13;;;7.43;;
36185;SDS011;22228;53.222;7.446;2024-01-30T17:24:12;6.70;;;6.10;;
36185;SDS011;22228;53.222;7.446;2024-01-30T17:27:35;7.13;;;6.13;;
36185;SDS011;22228;53.222;7.446;2024-01-30T17:30:56;6.50;;;6.00;;
36185;SDS011;22228;53.222;7.446;2024-01-30T17:34:17;6.00;;;5.53;;
36185;SDS011;22228;53.222;7.446;2024-01-30T17:37:41;5.97;;;5.47;;
36185;SDS011;22228;53.222;7.446;2024-01-30T17:41:01;5.80;;;5.30;;
36185;SDS011;22228;53.222;7.446;2024-01-30T17:44:24;6.10;;;5.60;;
36185;SDS011;22228;53.222;7.446;2024-01-30T17:47:45;6.00;;;5.40;;
36185;SDS011;22228;53.222;7.446;2024-01-30T17:51:05;5.23;;;4.73;;
36185;SDS011;22228;53.222;7.446;2024-01-30T17:54:27;4.57;;;4.23;;
36185;SDS011;22228;53.222;7.446;2024-01-30T17:57:48;4.23;;;3.90;;
36185;SDS011;22228;53.222;7.446;2024-01-30T18:01:10;4.20;;;3.80;;
36185;SDS011;22228;53.222;7.446;2024-01-30T18:04:31;3.77;;;3.47;;
36185;SDS011;22228;53.222;7.446;2024-01-30T18:07:51;4.50;;;4.10;;
36185;SDS011;22228;53.222;7.446;2024-01-30T18:11:12;5.57;;;4.00;;
36185;SDS011;22228;53.222;7.446;2024-01-30T18:14:32;4.40;;;3.83;;
36185;SDS011;22228;53.222;7.446;2024-01-30T18:17:54;4.17;;;3.77;;
36185;SDS011;22228;53.222;7.446;2024-01-30T18:21:15;4.10;;;3.70;;
36185;SDS011;22228;53.222;7.446;2024-01-30T18:24:36;4.73;;;3.77;;
36185;SDS011;22228;53.222;7.446;2024-01-30T18:27:56;4.47;;;3.00;;
36185;SDS011;22228;53.222;7.446;2024-01-30T18:31:17;5.50;;;2.73;;
36185;SDS011;22228;53.222;7.446;2024-01-30T18:34:39;3.83;;;2.97;;
36185;SDS011;22228;53.222;7.446;2024-01-30T18:38:00;6.93;;;2.90;;
36185;SDS011;22228;53.222;7.446;2024-01-30T18:41:22;5.13;;;3.20;;
36185;SDS011;22228;53.222;7.446;2024-01-30T18:44:43;4.17;;;3.80;;
36185;SDS011;22228;53.222;7.446;2024-01-30T18:48:06;9.57;;;4.57;;
36185;SDS011;22228;53.222;7.446;2024-01-30T18:51:28;10.87;;;4.90;;
36185;SDS011;22228;53.222;7.446;2024-01-30T18:54:49;8.67;;;4.70;;
36185;SDS011;22228;53.222;7.446;2024-01-30T18:58:09;11.13;;;5.07;;
36185;SDS011;22228;53.222;7.446;2024-01-30T19:01:30;9.00;;;4.37;;
36185;SDS011;22228;53.222;7.446;2024-01-30T19:04:51;10.80;;;4.10;;
36185;SDS011;22228;53.222;7.446;2024-01-30T19:08:13;9.53;;;5.13;;
36185;SDS011;22228;53.222;7.446;2024-01-30T19:11:34;9.27;;;4.70;;
36185;SDS011;22228;53.222;7.446;2024-01-30T19:14:55;10.67;;;4.67;;
36185;SDS011;22228;53.222;7.446;2024-01-30T19:18:15;10.23;;;4.40;;
36185;SDS011;22228;53.222;7.446;2024-01-30T19:21:36;12.13;;;4.30;;
36185;SDS011;22228;53.222;7.446;2024-01-30T19:24:58;9.97;;;3.50;;
36185;SDS011;22228;53.222;7.446;2024-01-30T19:28:20;6.97;;;3.40;;
36185;SDS011;22228;53.222;7.446;2024-01-30T19:31:40;9.27;;;2.70;;
36185;SDS011;22228;53.222;7.446;2024-01-30T19:35:00;9.73;;;2.87;;
36185;SDS011;22228;53.222;7.446;2024-01-30T19:38:24;12.97;;;3.97;;
36185;SDS011;22228;53.222;7.446;2024-01-30T19:41:46;16.73;;;5.23;;
36185;SDS011;22228;53.222;7.446;2024-01-30T19:45:08;10.57;;;3.03;;
36185;SDS011;22228;53.222;7.446;2024-01-30T19:48:31;11.77;;;4.13;;
36185;SDS011;22228;53.222;7.446;2024-01-30T19:51:52;14.47;;;4.73;;
36185;SDS011;22228;53.222;7.446;2024-01-30T19:55:12;9.70;;;3.50;;
36185;SDS011;22228;53.222;7.446;2024-01-30T19:58:34;10.20;;;3.80;;
36185;SDS011;22228;53.222;7.446;2024-01-30T20:01:55;16.20;;;4.07;;
36185;SDS011;22228;53.222;7.446;2024-01-30T20:05:17;15.60;;;3.80;;
36185;SDS011;22228;53.222;7.446;2024-01-30T20:08:37;13.23;;;4.00;;
36185;SDS011;22228;53.222;7.446;2024-01-30T20:11:57;13.63;;;3.20;;
36185;SDS011;22228;53.222;7.446;2024-01-30T20:15:20;17.20;;;4.53;;
36185;SDS011;22228;53.222;7.446;2024-01-30T20:18:43;10.60;;;2.97;;
36185;SDS011;22228;53.222;7.446;2024-01-30T20:22:04;16.47;;;2.90;;
36185;SDS011;22228;53.222;7.446;2024-01-30T20:25:24;9.07;;;2.43;;
36185;SDS011;22228;53.222;7.446;2024-01-30T20:28:45;14.27;;;3.20;;
36185;SDS011;22228;53.222;7.446;2024-01-30T20:32:07;14.77;;;2.50;;
36185;SDS011;22228;53.222;7.446;2024-01-30T20:35:28;11.53;;;2.53;;
36185;SDS011;22228;53.222;7.446;2024-01-30T20:38:48;11.60;;;2.47;;
36185;SDS011;22228;53.222;7.446;2024-01-30T20:42:10;14.50;;;3.10;;
36185;SDS011;22228;53.222;7.446;2024-01-30T20:45:30;15.43;;;2.90;;
36185;SDS011;22228;53.222;7.446;2024-01-30T20:48:56;13.70;;;2.70;;
36185;SDS011;22228;53.222;7.446;2024-01-30T20:52:16;17.60;;;3.17;;
36185;SDS011;22228;53.222;7.446;2024-01-30T20:55:37;16.47;;;3.47;;
36185;SDS011;22228;53.222;7.446;2024-01-30T20:58:58;16.83;;;3.47;;
36185;SDS011;22228;53.222;7.446;2024-01-30T21:02:18;19.47;;;2.73;;
36185;SDS011;22228;53.222;7.446;2024-01-30T21:05:40;12.03;;;2.27;;
36185;SDS011;22228;53.222;7.446;2024-01-30T21:09:01;13.40;;;3.03;;
36185;SDS011;22228;53.222;7.446;2024-01-30T21:12:22;18.67;;;3.63;;
36185;SDS011;22228;53.222;7.446;2024-01-30T21:15:42;24.63;;;3.17;;
36185;SDS011;22228;53.222;7.446;2024-01-30T21:19:03;18.10;;;3.40;;
36185;SDS011;22228;53.222;7.446;2024-01-30T21:22:25;14.70;;;2.93;;
36185;SDS011;22228;53.222;7.446;2024-01-30T21:25:46;20.23;;;4.00;;
36185;SDS011;22228;53.222;7.446;2024-01-30T21:29:06;12.87;;;3.20;;
36185;SDS011;22228;53.222;7.446;2024-01-30T21:32:27;10.67;;;3.00;;
36185;SDS011;22228;53.222;7.446;2024-01-30T21:35:47;8.73;;;2.10;;
36185;SDS011;22228;53.222;7.446;2024-01-30T21:39:09;9.00;;;2.10;;
36185;SDS011;22228;53.222;7.446;2024-01-30T21:42:30;12.27;;;2.17;;
36185;SDS011;22228;53.222;7.446;2024-01-30T21:45:50;10.53;;;2.20;;
36185;SDS011;22228;53.222;7.446;2024-01-30T21:49:10;11.07;;;1.93;;
36185;SDS011;22228;53.222;7.446;2024-01-30T21:52:31;10.37;;;1.63;;
36185;SDS011;22228;53.222;7.446;2024-01-30T21:55:53;9.93;;;1.63;;
36185;SDS011;22228;53.222;7.446;2024-01-30T21:59:13;9.80;;;2.40;;
36185;SDS011;22228;53.222;7.446;2024-01-30T22:02:34;16.87;;;2.40;;
36185;SDS011;22228;53.222;7.446;2024-01-30T22:05:55;11.47;;;1.67;;
36185;SDS011;22228;53.222;7.446;2024-01-30T22:09:15;11.83;;;2.53;;
36185;SDS011;22228;53.222;7.446;2024-01-30T22:12:37;12.77;;;2.77;;
36185;SDS011;22228;53.222;7.446;2024-01-30T22:15:58;8.20;;;2.10;;
36185;SDS011;22228;53.222;7.446;2024-01-30T22:19:18;9.83;;;1.87;;
36185;SDS011;22228;53.222;7.446;2024-01-30T22:22:42;7.77;;;1.80;;
36185;SDS011;22228;53.222;7.446;2024-01-30T22:26:03;4.07;;;1.47;;
36185;SDS011;22228;53.222;7.446;2024-01-30T22:29:25;5.77;;;1.20;;
36185;SDS011;22228;53.222;7.446;2024-01-30T22:32:47;6.33;;;1.37;;